createdAt,value
2023-02-16T00:00:20.157Z,7.10
2023-02-16T00:03:05.872Z,7.10
2023-02-16T00:05:51.583Z,7.00
2023-02-16T00:08:37.272Z,7.00
2023-02-16T00:11:41.924Z,7.00
2023-02-16T00:14:27.566Z,7.00
2023-02-16T00:17:13.026Z,7.00
2023-02-16T00:19:58.759Z,7.00
2023-02-16T00:22:44.507Z,7.10
2023-02-16T00:25:30.097Z,7.00
2023-02-16T00:28:17.733Z,7.00
2023-02-16T00:31:03.908Z,6.90
2023-02-16T00:33:49.749Z,6.90
2023-02-16T00:36:39.138Z,6.80
2023-02-16T00:39:27.554Z,6.70
2023-02-16T00:42:20.961Z,6.70
2023-02-16T00:45:13.501Z,6.70
2023-02-16T00:47:58.798Z,6.60
2023-02-16T00:50:45.036Z,6.50
2023-02-16T00:53:30.815Z,6.40
2023-02-16T00:56:18.784Z,6.40
2023-02-16T00:59:05.851Z,6.40
2023-02-16T01:01:51.689Z,6.40
2023-02-16T01:04:37.185Z,6.40
2023-02-16T01:07:41.677Z,6.30
2023-02-16T01:10:46.806Z,6.30
2023-02-16T01:13:32.759Z,6.20
2023-02-16T01:16:22.799Z,6.20
2023-02-16T01:19:10.468Z,6.10
2023-02-16T01:21:55.629Z,6.10
2023-02-16T01:24:41.434Z,6.00
2023-02-16T01:27:26.755Z,6.00
2023-02-16T01:30:16.835Z,6.00
2023-02-16T01:33:03.235Z,6.00
2023-02-16T01:35:49.803Z,6.00
2023-02-16T01:38:35.362Z,6.00
2023-02-16T01:41:27.426Z,5.90
2023-02-16T01:44:17.968Z,5.90
2023-02-16T01:47:12.602Z,5.90
2023-02-16T01:49:58.268Z,5.90
2023-02-16T01:52:47.695Z,5.90
2023-02-16T01:55:36.574Z,5.80
2023-02-16T01:58:22.180Z,5.80
2023-02-16T02:01:37.753Z,5.80
2023-02-16T02:04:52.265Z,5.80
2023-02-16T02:07:42.609Z,5.90
2023-02-16T02:10:27.953Z,5.90
2023-02-16T02:13:28.459Z,5.90
2023-02-16T02:16:19.321Z,5.80
2023-02-16T02:19:06.054Z,5.70
2023-02-16T02:22:19.958Z,5.70
2023-02-16T02:25:14.718Z,5.60
2023-02-16T02:28:01.158Z,5.60
2023-02-16T02:30:55.347Z,5.50
2023-02-16T02:33:47.182Z,5.50
2023-02-16T02:36:36.475Z,5.50
2023-02-16T02:39:34.709Z,5.60
2023-02-16T02:42:20.953Z,5.60
2023-02-16T02:45:17.233Z,5.60
2023-02-16T02:48:03.337Z,5.60
2023-02-16T02:51:21.513Z,5.60
2023-02-16T02:54:26.605Z,5.60
2023-02-16T02:57:38.915Z,5.50
2023-02-16T03:00:47.413Z,5.40
2023-02-16T03:03:37.974Z,5.40
2023-02-16T03:06:27.739Z,5.30
2023-02-16T03:09:14.411Z,5.30
2023-02-16T03:12:19.750Z,5.20
2023-02-16T03:15:06.059Z,5.30
2023-02-16T03:18:12.497Z,5.10
2023-02-16T03:21:17.134Z,5.10
2023-02-16T03:24:23.140Z,5.10
2023-02-16T03:27:27.779Z,5.10
2023-02-16T03:30:15.431Z,5.10
2023-02-16T03:33:01.379Z,5.00
2023-02-16T03:35:46.898Z,5.00
2023-02-16T03:38:32.641Z,5.00
2023-02-16T03:41:17.999Z,5.10
2023-02-16T03:44:03.726Z,5.30
2023-02-16T03:46:49.604Z,5.30
2023-02-16T03:49:35.366Z,5.40
2023-02-16T03:52:20.565Z,5.30
2023-02-16T03:55:06.400Z,5.10
2023-02-16T03:57:52.004Z,5.00
2023-02-16T04:00:37.490Z,4.80
2023-02-16T04:03:23.247Z,4.80
2023-02-16T04:06:08.907Z,4.70
2023-02-16T04:08:54.732Z,4.60
2023-02-16T04:11:58.944Z,4.70
2023-02-16T04:14:44.424Z,4.80
2023-02-16T04:17:30.207Z,4.90
2023-02-16T04:20:17.532Z,5.10
2023-02-16T04:23:03.521Z,5.20
2023-02-16T04:25:49.348Z,5.40
2023-02-16T04:28:34.917Z,5.40
2023-02-16T04:31:20.780Z,5.50
2023-02-16T04:34:06.395Z,5.40
2023-02-16T04:36:52.005Z,5.30
2023-02-16T04:39:37.843Z,5.30
2023-02-16T04:42:23.166Z,5.40
2023-02-16T04:45:09.529Z,5.50
2023-02-16T04:47:54.928Z,5.50
2023-02-16T04:50:40.632Z,5.60
2023-02-16T04:53:26.394Z,5.60
2023-02-16T04:56:12.289Z,5.70
2023-02-16T04:58:57.936Z,5.70
2023-02-16T05:01:43.583Z,5.70
2023-02-16T05:04:29.115Z,5.70
2023-02-16T05:07:14.889Z,5.80
2023-02-16T05:10:00.413Z,5.80
2023-02-16T05:13:05.113Z,5.80
2023-02-16T05:15:50.555Z,5.80
2023-02-16T05:18:36.187Z,5.80
2023-02-16T05:21:35.189Z,5.80
2023-02-16T05:24:20.976Z,5.80
2023-02-16T05:27:07.487Z,5.80
2023-02-16T05:29:53.095Z,5.80
2023-02-16T05:32:38.399Z,5.70
2023-02-16T05:35:23.700Z,5.70
2023-02-16T05:38:09.516Z,5.80
2023-02-16T05:40:55.319Z,5.70
2023-02-16T05:43:41.062Z,5.70
2023-02-16T05:46:27.199Z,5.70
2023-02-16T05:49:13.427Z,5.70
2023-02-16T05:51:58.915Z,5.80
2023-02-16T05:54:44.143Z,5.80
2023-02-16T05:57:30.158Z,5.80
2023-02-16T06:00:15.887Z,5.80
2023-02-16T06:03:01.279Z,5.80
2023-02-16T06:05:47.012Z,5.80
2023-02-16T06:08:33.146Z,5.70
2023-02-16T06:11:36.807Z,5.70
2023-02-16T06:14:22.747Z,5.80
2023-02-16T06:17:08.318Z,5.70
2023-02-16T06:19:54.180Z,5.80
2023-02-16T06:22:39.551Z,5.80
2023-02-16T06:25:25.282Z,5.80
2023-02-16T06:28:11.407Z,5.80
2023-02-16T06:30:56.882Z,5.80
2023-02-16T06:33:43.412Z,5.80
2023-02-16T06:36:30.185Z,5.80
2023-02-16T06:39:15.931Z,5.90
2023-02-16T06:42:01.333Z,6.00
2023-02-16T06:44:47.846Z,6.00
2023-02-16T06:47:33.489Z,6.00
2023-02-16T06:50:19.132Z,6.10
2023-02-16T06:53:04.417Z,6.10
2023-02-16T06:55:53.335Z,6.20
2023-02-16T06:58:39.792Z,6.20
2023-02-16T07:01:26.146Z,6.20
2023-02-16T07:04:12.128Z,6.40
2023-02-16T07:06:57.654Z,6.60
2023-02-16T07:09:42.987Z,6.80
2023-02-16T07:12:28.481Z,6.90
2023-02-16T07:15:14.166Z,7.00
2023-02-16T07:17:59.841Z,7.20
2023-02-16T07:20:45.706Z,7.50
2023-02-16T07:23:31.141Z,7.70
2023-02-16T07:26:16.583Z,7.90
2023-02-16T07:29:02.331Z,7.90
2023-02-16T07:31:47.995Z,7.90
2023-02-16T07:34:34.211Z,8.00
2023-02-16T07:37:19.855Z,8.00
2023-02-16T07:40:06.219Z,8.10
2023-02-16T07:42:51.472Z,8.10
2023-02-16T07:45:36.817Z,8.20
2023-02-16T07:48:22.444Z,8.30
2023-02-16T07:51:08.356Z,8.40
2023-02-16T07:53:54.419Z,8.50
2023-02-16T07:56:39.911Z,8.50
2023-02-16T07:59:25.251Z,8.60
2023-02-16T08:02:17.551Z,8.70
2023-02-16T08:05:03.478Z,8.70
2023-02-16T08:07:48.984Z,8.80
2023-02-16T08:10:34.408Z,8.80
2023-02-16T08:13:20.164Z,8.80
2023-02-16T08:16:09.611Z,8.80
2023-02-16T08:18:56.298Z,8.90
2023-02-16T08:21:42.103Z,9.00
2023-02-16T08:24:27.422Z,9.20
2023-02-16T08:27:13.137Z,9.30
2023-02-16T08:29:58.585Z,9.50
2023-02-16T08:32:44.830Z,9.70
2023-02-16T08:35:32.465Z,9.90
2023-02-16T08:38:18.120Z,10.10
2023-02-16T08:41:03.751Z,10.40
2023-02-16T08:43:49.614Z,10.60
2023-02-16T08:46:43.078Z,10.70
2023-02-16T08:49:43.691Z,11.00
2023-02-16T08:52:29.923Z,11.20
2023-02-16T08:55:25.413Z,11.40
2023-02-16T08:58:10.997Z,11.50
2023-02-16T09:00:57.216Z,11.60
2023-02-16T09:03:43.650Z,11.70
2023-02-16T09:06:29.312Z,11.80
2023-02-16T09:09:15.116Z,11.80
2023-02-16T09:12:00.340Z,11.80
2023-02-16T09:14:46.066Z,11.70
2023-02-16T09:17:31.610Z,11.70
2023-02-16T09:20:17.355Z,11.80
2023-02-16T09:23:02.855Z,11.90
2023-02-16T09:25:48.306Z,11.90
2023-02-16T09:28:34.961Z,11.90
2023-02-16T09:31:27.772Z,12.00
2023-02-16T09:34:13.323Z,12.00
2023-02-16T09:36:58.776Z,12.00
2023-02-16T09:39:44.315Z,12.00
2023-02-16T09:42:32.748Z,12.10
2023-02-16T09:45:20.413Z,12.20
2023-02-16T09:48:06.180Z,12.20
2023-02-16T09:50:54.937Z,12.10
2023-02-16T09:53:41.215Z,12.10
2023-02-16T09:56:33.104Z,12.10
2023-02-16T09:59:38.206Z,12.10
2023-02-16T10:02:32.754Z,12.20
2023-02-16T10:05:20.387Z,12.30
2023-02-16T10:08:08.085Z,12.50
2023-02-16T10:11:54.547Z,12.70
2023-02-16T10:14:48.983Z,12.70
2023-02-16T10:17:48.007Z,12.70
2023-02-16T10:28:18.927Z,12.70
2023-02-16T10:31:21.025Z,12.60
2023-02-16T10:34:06.907Z,12.60
2023-02-16T10:37:11.586Z,12.60
2023-02-16T10:40:12.193Z,12.50
2023-02-16T10:43:03.746Z,12.70
2023-02-16T10:45:51.995Z,12.80
2023-02-16T10:48:37.860Z,12.90
2023-02-16T10:51:28.051Z,13.00
2023-02-16T10:54:17.567Z,13.00
2023-02-16T10:57:05.166Z,13.20
2023-02-16T10:59:50.956Z,13.20
2023-02-16T11:02:45.459Z,13.20
2023-02-16T11:05:31.282Z,13.20
2023-02-16T11:08:17.520Z,13.20
2023-02-16T11:11:09.613Z,13.20
2023-02-16T11:13:59.775Z,13.10
2023-02-16T11:16:46.628Z,12.80
2023-02-16T11:19:33.463Z,12.80
2023-02-16T11:22:31.714Z,12.90
2023-02-16T11:25:22.842Z,13.00
2023-02-16T11:28:12.381Z,13.00
2023-02-16T11:31:18.584Z,13.00
2023-02-16T11:34:12.242Z,13.00
2023-02-16T11:37:03.139Z,13.00
2023-02-16T11:39:50.504Z,13.00
2023-02-16T11:42:43.895Z,13.20
2023-02-16T11:45:34.572Z,13.30
2023-02-16T11:48:25.840Z,13.30
2023-02-16T11:51:12.416Z,13.50
2023-02-16T11:54:02.546Z,13.40
2023-02-16T11:57:01.784Z,13.30
2023-02-16T11:59:47.435Z,13.30
2023-02-16T12:02:46.974Z,13.40
2023-02-16T12:05:52.907Z,13.50
2023-02-16T12:08:42.964Z,13.50
2023-02-16T12:11:35.866Z,13.50
2023-02-16T12:14:22.394Z,13.60
2023-02-16T12:17:18.018Z,13.50
2023-02-16T12:20:12.536Z,13.60
2023-02-16T12:23:10.713Z,13.50
2023-02-16T12:25:59.114Z,13.70
2023-02-16T12:28:48.069Z,13.80
2023-02-16T12:31:33.989Z,13.60
2023-02-16T12:34:32.689Z,13.50
2023-02-16T12:37:18.227Z,13.60
2023-02-16T12:40:04.051Z,13.70
2023-02-16T12:43:08.359Z,13.70
2023-02-16T12:45:55.528Z,13.70
2023-02-16T12:49:01.184Z,13.80
2023-02-16T12:52:07.045Z,13.80
2023-02-16T12:54:55.500Z,13.90
2023-02-16T12:57:44.352Z,13.80
2023-02-16T13:00:30.052Z,13.90
2023-02-16T13:03:29.066Z,14.00
2023-02-16T13:06:19.373Z,14.00
2023-02-16T13:09:24.740Z,13.90
2023-02-16T13:12:19.453Z,13.90
2023-02-16T13:15:10.580Z,14.10
2023-02-16T13:17:57.824Z,14.10
2023-02-16T13:20:45.792Z,14.10
2023-02-16T13:23:43.638Z,14.10
2023-02-16T13:26:33.620Z,14.10
2023-02-16T13:29:29.124Z,14.00
2023-02-16T13:32:24.763Z,14.10
2023-02-16T13:35:30.108Z,14.10
2023-02-16T13:38:27.930Z,14.20
2023-02-16T13:41:28.066Z,14.30
2023-02-16T13:44:26.049Z,14.40
2023-02-16T13:47:14.377Z,14.40
2023-02-16T13:50:01.494Z,14.40
2023-02-16T13:52:49.362Z,14.50
2023-02-16T13:55:37.470Z,14.50
2023-02-16T13:58:27.668Z,14.50
2023-02-16T14:01:31.988Z,14.50
2023-02-16T14:04:23.818Z,14.50
2023-02-16T14:07:18.917Z,14.30
2023-02-16T14:10:04.619Z,14.30
2023-02-16T14:12:52.313Z,14.30
2023-02-16T14:15:49.546Z,14.30
2023-02-16T14:18:54.441Z,14.30
2023-02-16T14:21:44.283Z,14.30
2023-02-16T14:24:32.768Z,14.40
2023-02-16T14:27:38.131Z,14.40
2023-02-16T14:30:30.686Z,14.40
2023-02-16T14:33:22.468Z,14.30
2023-02-16T14:36:09.437Z,14.40
2023-02-16T14:38:58.335Z,14.40
2023-02-16T14:41:44.131Z,14.40
2023-02-16T14:44:38.527Z,14.40
2023-02-16T14:47:24.107Z,14.40
2023-02-16T14:50:25.414Z,14.40
2023-02-16T14:53:21.658Z,14.40
2023-02-16T14:56:16.787Z,14.40
2023-02-16T14:59:11.820Z,14.50
2023-02-16T15:04:58.551Z,14.40
2023-02-16T15:07:46.493Z,14.30
2023-02-16T15:10:33.515Z,14.20
2023-02-16T15:13:20.593Z,14.20
2023-02-16T15:16:09.382Z,14.20
2023-02-16T15:18:56.795Z,14.20
2023-02-16T15:21:42.524Z,14.20
2023-02-16T15:24:28.375Z,14.10
2023-02-16T15:27:22.572Z,14.10
2023-02-16T15:30:18.718Z,14.10
2023-02-16T15:33:07.048Z,14.10
2023-02-16T15:35:57.411Z,14.00
2023-02-16T15:38:54.426Z,14.00
2023-02-16T15:41:41.989Z,13.90
2023-02-16T15:44:34.470Z,13.90
2023-02-16T15:47:24.261Z,13.90
2023-02-16T15:50:13.539Z,13.80
2023-02-16T15:53:02.304Z,13.80
2023-02-16T15:55:48.018Z,13.80
2023-02-16T15:58:33.789Z,13.80
2023-02-16T16:01:30.457Z,13.70
2023-02-16T16:04:24.445Z,13.70
2023-02-16T16:07:13.566Z,13.70
2023-02-16T16:09:59.537Z,13.60
2023-02-16T16:12:45.649Z,13.50
2023-02-16T16:15:40.732Z,13.50
2023-02-16T16:18:46.170Z,13.40
2023-02-16T16:21:35.949Z,13.40
2023-02-16T16:24:34.122Z,13.30
2023-02-16T16:27:28.872Z,13.30
2023-02-16T16:30:20.705Z,13.20
2023-02-16T16:33:07.678Z,13.10
2023-02-16T16:35:53.246Z,13.10
2023-02-16T16:38:42.667Z,13.10
2023-02-16T16:41:28.694Z,13.00
2023-02-16T16:44:32.048Z,13.00
2023-02-16T16:47:28.877Z,12.90
2023-02-16T16:50:14.868Z,12.80
2023-02-16T16:53:00.442Z,12.80
2023-02-16T16:55:46.003Z,12.70
2023-02-16T16:58:31.815Z,12.60
2023-02-16T17:01:18.063Z,12.60
2023-02-16T17:04:03.728Z,12.50
2023-02-16T17:06:48.975Z,12.50
2023-02-16T17:09:34.780Z,12.40
2023-02-16T17:12:20.708Z,12.40
2023-02-16T17:15:07.876Z,12.30
2023-02-16T17:17:53.234Z,12.30
2023-02-16T17:20:38.974Z,12.20
2023-02-16T17:23:24.859Z,12.20
2023-02-16T17:26:11.959Z,12.10
2023-02-16T17:28:57.470Z,12.10
2023-02-16T17:31:43.410Z,12.00
2023-02-16T17:34:31.860Z,12.00
2023-02-16T17:37:19.543Z,12.00
2023-02-16T17:40:10.377Z,12.00
2023-02-16T17:42:56.244Z,11.90
2023-02-16T17:45:42.078Z,11.90
2023-02-16T17:48:30.312Z,11.80
2023-02-16T17:51:18.465Z,11.70
2023-02-16T17:54:06.574Z,11.60
2023-02-16T17:56:52.264Z,11.60
2023-02-16T17:59:37.990Z,11.50
2023-02-16T18:02:23.840Z,11.30
2023-02-16T18:05:09.869Z,11.20
2023-02-16T18:07:56.044Z,11.10
2023-02-16T18:10:43.565Z,10.90
2023-02-16T18:13:29.436Z,10.90
2023-02-16T18:16:18.831Z,10.80
2023-02-16T18:19:04.523Z,10.70
2023-02-16T18:21:49.930Z,10.60
2023-02-16T18:24:35.943Z,10.60
2023-02-16T18:27:21.597Z,10.50
2023-02-16T18:30:07.603Z,10.50
2023-02-16T18:32:53.692Z,10.40
2023-02-16T18:35:39.469Z,10.40
2023-02-16T18:38:25.698Z,10.30
2023-02-16T18:41:12.319Z,10.30
2023-02-16T18:43:57.763Z,10.20
2023-02-16T18:46:43.561Z,10.10
2023-02-16T18:49:30.301Z,10.10
2023-02-16T18:52:16.209Z,10.10
2023-02-16T18:55:01.728Z,10.10
2023-02-16T18:57:47.528Z,10.00
2023-02-16T19:00:33.317Z,10.00
2023-02-16T19:03:18.862Z,10.00
2023-02-16T19:06:05.287Z,10.00
2023-02-16T19:08:53.997Z,9.90
2023-02-16T19:11:39.405Z,9.80
2023-02-16T19:14:25.016Z,9.80
2023-02-16T19:17:10.439Z,9.70
2023-02-16T19:19:57.379Z,9.70
2023-02-16T19:22:42.987Z,9.70
2023-02-16T19:25:29.341Z,9.60
2023-02-16T19:28:14.499Z,9.60
2023-02-16T19:31:04.727Z,9.60
2023-02-16T19:33:51.182Z,9.60
2023-02-16T19:36:36.410Z,9.50
2023-02-16T19:39:21.949Z,9.50
2023-02-16T19:42:07.786Z,9.40
2023-02-16T19:44:53.659Z,9.40
2023-02-16T19:47:39.182Z,9.40
2023-02-16T19:50:24.366Z,9.30
2023-02-16T19:53:12.792Z,9.30
2023-02-16T19:55:58.779Z,9.30
2023-02-16T19:58:44.323Z,9.30
2023-02-16T20:01:29.968Z,9.30
2023-02-16T20:04:15.715Z,9.30
2023-02-16T20:07:01.344Z,9.30
2023-02-16T20:09:47.114Z,9.30
2023-02-16T20:12:32.810Z,9.30
2023-02-16T20:15:18.627Z,9.30
2023-02-16T20:18:05.901Z,9.30
2023-02-16T20:21:02.112Z,9.30
2023-02-16T20:23:49.670Z,9.30
2023-02-16T20:26:36.852Z,9.40
2023-02-16T20:29:22.696Z,9.40
2023-02-16T20:32:08.202Z,9.40
2023-02-16T20:34:53.925Z,9.40
2023-02-16T20:37:42.894Z,9.40
2023-02-16T20:40:28.700Z,9.40
2023-02-16T20:43:20.860Z,9.40
2023-02-16T20:46:07.450Z,9.40
2023-02-16T20:48:53.967Z,9.40
2023-02-16T20:51:41.262Z,9.40
2023-02-16T20:54:27.223Z,9.40
2023-02-16T20:57:24.962Z,9.40
2023-02-16T21:00:16.444Z,9.40
2023-02-16T21:03:02.053Z,9.40
2023-02-16T21:05:47.768Z,9.40
2023-02-16T21:08:33.447Z,9.30
2023-02-16T21:11:19.383Z,9.30
2023-02-16T21:14:05.649Z,9.20
2023-02-16T21:16:51.767Z,9.20
2023-02-16T21:19:38.516Z,9.20
2023-02-16T21:22:24.817Z,9.20
2023-02-16T21:25:11.005Z,9.20
2023-02-16T21:27:57.873Z,9.10
2023-02-16T21:30:43.504Z,9.10
2023-02-16T21:33:29.398Z,9.00
2023-02-16T21:36:17.078Z,8.90
2023-02-16T21:39:02.953Z,8.80
2023-02-16T21:41:48.305Z,8.80
2023-02-16T21:44:34.027Z,8.70
2023-02-16T21:47:38.567Z,8.60
2023-02-16T21:50:24.044Z,8.60
2023-02-16T21:53:10.182Z,8.50
2023-02-16T21:56:14.448Z,8.50
2023-02-16T21:58:59.938Z,8.40
2023-02-16T22:01:47.140Z,8.40
2023-02-16T22:04:32.648Z,8.40
2023-02-16T22:07:17.949Z,8.40
2023-02-16T22:10:03.419Z,8.40
2023-02-16T22:12:48.899Z,8.40
2023-02-16T22:15:35.592Z,8.40
2023-02-16T22:18:20.852Z,8.40
2023-02-16T22:21:06.249Z,8.40
2023-02-16T22:23:51.769Z,8.50
2023-02-16T22:26:37.107Z,8.40
2023-02-16T22:29:22.462Z,8.50
2023-02-16T22:32:11.225Z,8.50
2023-02-16T22:34:56.724Z,8.40
2023-02-16T22:37:42.063Z,8.40
2023-02-16T22:40:29.593Z,8.40
2023-02-16T22:43:15.471Z,8.40
2023-02-16T22:46:04.825Z,8.40
2023-02-16T22:48:50.865Z,8.40
2023-02-16T22:51:37.499Z,8.40
2023-02-16T22:54:23.365Z,8.50
2023-02-16T22:57:08.646Z,8.40
2023-02-16T22:59:54.013Z,8.30
2023-02-16T23:02:39.786Z,8.30
2023-02-16T23:05:25.245Z,8.30
2023-02-16T23:08:11.808Z,8.20
2023-02-16T23:11:00.042Z,8.20
2023-02-16T23:13:45.835Z,8.10
2023-02-16T23:16:32.212Z,8.00
2023-02-16T23:19:19.414Z,8.00
2023-02-16T23:22:05.142Z,8.00
2023-02-16T23:25:10.452Z,8.00
2023-02-16T23:27:55.787Z,8.00
2023-02-16T23:30:45.067Z,8.00
2023-02-16T23:33:30.374Z,8.00
2023-02-16T23:36:16.186Z,8.00
2023-02-16T23:39:02.352Z,7.90
2023-02-16T23:41:48.156Z,7.90
2023-02-16T23:44:33.806Z,7.90
2023-02-16T23:47:19.801Z,7.90
2023-02-16T23:50:05.641Z,7.80
2023-02-16T23:52:50.950Z,7.80
2023-02-16T23:55:36.216Z,7.70
2023-02-16T23:58:21.436Z,7.70
